KRIL/RIL METAR and TAF weather

Enter ICAO airport designator
Station Type Date Time Source
KRIL METAR 2021/06/22 22:53 UTC NOAA

KRIL 222253Z AUTO 28014G24KT 10SM CLR 37/M04 A2992 RMK AO2 SLP050 T03671044


Station Type Date Time Source
KRIL Decoded METAR 2021/06/22 22:53 UTC NOAA

RIFLE GARFIELD COUNTY RGNL, CO, United States (KRIL) 39-31N 107-44W 1678M
Jun 22, 2021 - 06:53 PM EDT / 2021.06.22 2253 UTC
Wind: from the W (280 degrees) at 16 MPH (14 KT) gusting to 28 MPH (24 KT):0
Visibility: 10 mile(s):0
Sky conditions: clear
Temperature: 98.1 F (36.7 C)
Dew Point: 24.1 F (-4.4 C)
Relative Humidity: 7%
Pressure (altimeter): 29.92 in. Hg (1013 hPa)
ob: KRIL 222253Z AUTO 28014G24KT 10SM CLR 37/M04 A2992 RMK AO2 SLP050 T03671044
cycle: 23

Station Type Date Time Source
KRIL TAF 2021/06/22 18:33 UTC NOAA

TAF KRIL 221730Z 2218/2318 28006KT P6SM FEW150
FM222000 26014G22KT P6SM FEW150
FM230200 22009KT P6SM SKC
FM230600 VRB03KT P6SM FEW180

Example: see airport list